Time;durP1;ratioP1;P1;durP2;ratioP2;P2;SDS_P1;SDS_P2;PMS_P1;PMS_P2;Temp;Humidity;BMP_temperature;BMP_pressure;BME280_temperature;BME280_humidity;BME280_pressure;Samples;Min_cycle;Max_cycle;Signal;HPM_P1;HPM_P2
2021/07/27 00:01:43;;;;;;;17.40;15.70;;;;;;;19.93;81.42;100930.41;1730882;81;21654;-74
2021/07/27 00:04:10;;;;;;;17.47;15.77;;;;;;;19.90;81.54;100929.91;1729550;81;21082;-74
2021/07/27 00:06:36;;;;;;;17.20;15.40;;;;;;;19.88;81.77;100922.66;1740618;80;21095;-74
2021/07/27 00:09:03;;;;;;;17.17;15.47;;;;;;;19.87;81.72;100922.42;1743510;81;21063;-74
2021/07/27 00:11:30;;;;;;;17.80;15.90;;;;;;;19.85;81.62;100918.41;1741586;81;21060;-74
2021/07/27 00:13:57;;;;;;;18.27;16.10;;;;;;;19.86;81.53;100913.23;1741555;81;21930;-74
2021/07/27 00:16:23;;;;;;;17.83;16.13;;;;;;;19.85;81.52;100911.08;1741965;81;21107;-74
2021/07/27 00:18:50;;;;;;;17.50;15.63;;;;;;;19.84;81.53;100913.55;1734448;81;21140;-74
2021/07/27 00:21:16;;;;;;;17.97;16.10;;;;;;;19.84;81.72;100908.14;1746451;81;21079;-75
2021/07/27 00:23:43;;;;;;;18.00;16.20;;;;;;;19.83;81.83;100907.87;1747761;81;21100;-75
2021/07/27 00:26:14;;;;;;;20.80;16.53;;;;;;;19.82;81.95;100912.26;1730334;81;21114;-78
2021/07/27 00:28:41;;;;;;;20.68;16.90;;;;;;;19.81;81.95;100906.05;1737774;81;21103;-77
2021/07/27 00:31:18;;;;;;;19.50;16.40;;;;;;;19.82;81.95;100905.48;1742196;81;21083;-74
2021/07/27 00:33:48;;;;;;;18.87;16.33;;;;;;;19.80;82.05;100905.78;1743564;81;21024;-74
2021/07/27 00:36:15;;;;;;;17.93;16.03;;;;;;;19.81;82.08;100908.75;1741093;80;21103;-77
2021/07/27 00:38:42;;;;;;;20.33;15.60;;;;;;;19.80;82.24;100903.62;1739976;81;21059;-75
2021/07/27 00:41:09;;;;;;;17.30;15.50;;;;;;;19.78;82.51;100902.59;1752621;81;21178;-74
2021/07/27 00:43:36;;;;;;;17.50;15.70;;;;;;;19.75;82.79;100904.56;1746517;81;21026;-75
2021/07/27 00:46:02;;;;;;;18.23;16.30;;;;;;;19.75;83.06;100899.70;1738032;80;21582;-74
2021/07/27 00:48:29;;;;;;;18.43;16.43;;;;;;;19.74;83.23;100899.44;1740258;80;21605;-75
2021/07/27 00:50:56;;;;;;;17.43;15.80;;;;;;;19.73;83.40;100899.20;1744288;81;21032;-75
2021/07/27 00:53:22;;;;;;;17.80;15.90;;;;;;;19.70;83.59;100892.48;1742681;81;22060;-75
2021/07/27 00:55:49;;;;;;;18.10;16.13;;;;;;;19.68;83.80;100898.23;1744030;81;21711;-75
2021/07/27 00:58:16;;;;;;;18.20;16.27;;;;;;;19.64;84.05;100889.66;1743807;80;21056;-75
2021/07/27 01:00:44;;;;;;;21.07;16.87;;;;;;;19.62;84.30;100897.28;1738284;81;21562;-75
2021/07/27 01:03:10;;;;;;;22.53;16.40;;;;;;;19.59;84.44;100900.05;1753212;81;21693;-75
2021/07/27 01:05:36;;;;;;;20.90;17.07;;;;;;;19.57;84.53;100901.47;1736049;81;21630;-76
2021/07/27 01:08:04;;;;;;;20.73;16.50;;;;;;;19.54;84.54;100898.02;1734262;80;21156;-76
2021/07/27 01:10:31;;;;;;;18.83;16.50;;;;;;;19.50;84.58;100895.69;1737726;81;21060;-76
2021/07/27 01:12:59;;;;;;;18.73;16.47;;;;;;;19.49;84.65;100902.22;1703297;83;21560;-76
2021/07/27 01:15:27;;;;;;;18.13;16.23;;;;;;;19.47;84.58;100906.58;1745189;81;21059;-74
2021/07/27 01:18:02;;;;;;;20.43;16.60;;;;;;;19.47;84.53;100906.58;1744280;80;21079;-74
2021/07/27 01:39:34;;;;;;;18.67;16.60;;;;;;;19.30;84.93;100891.00;1740482;80;21097;-74
2021/07/27 01:42:14;;;;;;;17.93;15.50;;;;;;;19.29;85.05;100890.77;1734767;81;21582;-74
2021/07/27 01:44:44;;;;;;;19.67;17.60;;;;;;;19.27;85.27;100884.84;1748090;81;21052;-74
2021/07/27 01:47:17;;;;;;;18.50;16.57;;;;;;;19.26;85.42;100886.52;1750825;81;21760;-74
2021/07/27 01:49:44;;;;;;;19.80;17.07;;;;;;;19.23;85.63;100890.63;1742634;80;21060;-74
2021/07/27 01:52:15;;;;;;;18.67;16.77;;;;;;;19.21;85.82;100894.19;1731975;81;21008;-74
2021/07/27 01:54:51;;;;;;;19.13;17.00;;;;;;;19.19;85.95;100891.00;1735575;81;21515;-74
2021/07/27 01:57:15;;;;;;;19.03;17.03;;;;;;;19.15;86.09;100894.05;1741348;81;21547;-74
2021/07/27 01:59:44;;;;;;;19.17;17.03;;;;;;;19.13;86.15;100888.96;1746857;81;21097;-74
2021/07/27 02:02:11;;;;;;;19.40;17.30;;;;;;;19.10;86.19;100886.06;1749119;80;21095;-73
2021/07/27 02:04:37;;;;;;;19.00;17.03;;;;;;;19.07;86.36;100890.73;1730908;81;21072;-73
2021/07/27 02:07:04;;;;;;;19.60;17.60;;;;;;;19.04;86.45;100892.70;1733769;81;21177;-73
2021/07/27 02:09:38;;;;;;;19.93;17.83;;;;;;;19.02;86.63;100893.55;1738948;80;21295;-74
2021/07/27 02:12:03;;;;;;;18.67;16.67;;;;;;;18.98;86.84;100894.16;1743118;81;21044;-74
2021/07/27 02:17:15;;;;;;;19.10;17.30;;;;;;;18.95;86.95;100892.09;1735455;81;21535;-74
2021/07/27 02:19:42;;;;;;;19.30;17.30;;;;;;;18.93;87.00;100894.28;1734221;80;21103;-74
2021/07/27 02:22:10;;;;;;;19.40;17.53;;;;;;;18.92;87.06;100891.87;1744796;81;21063;-74
2021/07/27 02:24:36;;;;;;;19.40;17.47;;;;;;;18.92;87.10;100895.92;1739995;81;22152;-74
2021/07/27 02:27:03;;;;;;;18.90;17.03;;;;;;;18.89;87.22;100889.23;1743566;80;21051;-74
2021/07/27 02:29:29;;;;;;;19.87;17.80;;;;;;;18.88;87.33;100884.12;1743772;80;21111;-75
2021/07/27 02:31:56;;;;;;;18.77;16.97;;;;;;;18.85;87.42;100890.93;1736596;80;21721;-75
2021/07/27 02:34:22;;;;;;;18.93;17.00;;;;;;;18.83;87.54;100886.39;1740970;81;21099;-73
2021/07/27 02:36:49;;;;;;;19.40;17.47;;;;;;;18.84;87.65;100889.34;1750567;81;21511;-73
2021/07/27 02:39:16;;;;;;;19.30;17.30;;;;;;;18.84;87.79;100891.25;1751441;81;21032;-74
2021/07/27 02:41:42;;;;;;;19.37;17.47;;;;;;;18.84;87.91;100888.55;1743399;81;21086;-73
2021/07/27 02:44:09;;;;;;;20.07;18.03;;;;;;;18.84;87.93;100887.98;1743167;80;21122;-73
2021/07/27 02:46:35;;;;;;;19.70;17.70;;;;;;;18.84;87.96;100886.63;1734965;81;21043;-73
2021/07/27 02:49:03;;;;;;;20.17;18.20;;;;;;;18.83;88.13;100887.75;1742796;81;22088;-73
2021/07/27 02:51:30;;;;;;;19.90;17.90;;;;;;;18.83;88.27;100889.09;1740231;80;21103;-74
2021/07/27 02:53:58;;;;;;;19.57;17.77;;;;;;;18.86;88.36;100891.20;1746584;81;21562;-74
2021/07/27 02:56:25;;;;;;;20.67;18.67;;;;;;;18.89;88.43;100891.16;1742175;81;20997;-74
2021/07/27 02:58:52;;;;;;;20.10;17.50;;;;;;;18.91;88.44;100886.22;1759468;81;21107;-75
2021/07/27 03:01:18;;;;;;;20.17;18.13;;;;;;;18.95;88.47;100883.97;1747416;80;21128;-74
2021/07/27 03:03:48;;;;;;;19.50;17.57;;;;;;;18.98;88.47;100883.88;1743211;81;21017;-74
2021/07/27 03:06:16;;;;;;;18.70;17.00;;;;;;;19.03;88.44;100884.34;1722949;81;21534;-73
2021/07/27 03:09:04;;;;;;;19.60;17.67;;;;;;;19.05;88.40;100878.88;1731921;81;20993;-74
2021/07/27 03:11:27;;;;;;;20.83;18.70;;;;;;;19.09;88.45;100879.06;1734726;80;21083;-73
2021/07/27 03:13:54;;;;;;;20.03;17.93;;;;;;;19.10;88.41;100880.66;1743088;80;21409;-73
2021/07/27 03:16:23;;;;;;;21.30;19.30;;;;;;;19.13;88.45;100877.34;1736492;81;21001;-73
2021/07/27 03:18:51;;;;;;;20.37;18.33;;;;;;;19.16;88.41;100874.81;1745310;81;21044;-74
2021/07/27 03:21:26;;;;;;;21.30;19.13;;;;;;;19.21;88.41;100880.09;1735497;80;21079;-73
2021/07/27 03:23:54;;;;;;;21.07;18.90;;;;;;;19.26;88.39;100876.48;1738495;81;21060;-74
2021/07/27 03:26:22;;;;;;;20.03;18.03;;;;;;;19.33;88.34;100874.70;1742258;81;21513;-74
2021/07/27 03:28:49;;;;;;;20.60;18.60;;;;;;;19.38;88.15;100882.16;1746246;81;21194;-75
2021/07/27 03:31:15;;;;;;;20.30;18.20;;;;;;;19.45;87.96;100883.88;1739486;80;21099;-75
2021/07/27 03:33:43;;;;;;;21.40;19.30;;;;;;;19.54;87.83;100889.88;1743822;81;21053;-74
2021/07/27 03:36:10;;;;;;;20.13;18.20;;;;;;;19.64;87.67;100885.59;1753142;81;21464;-73
2021/07/27 03:38:36;;;;;;;20.73;18.60;;;;;;;19.75;87.44;100892.38;1736270;81;21574;-73
2021/07/27 03:41:08;;;;;;;19.57;17.77;;;;;;;19.86;87.04;100886.92;1737664;81;21165;-74
2021/07/27 03:43:35;;;;;;;20.35;18.17;;;;;;;19.95;86.87;100880.19;1743758;81;21008;-73
2021/07/27 03:46:05;;;;;;;19.03;17.10;;;;;;;20.04;86.51;100884.28;1745235;81;21594;-75
2021/07/27 03:48:32;;;;;;;19.30;17.50;;;;;;;20.12;86.17;100876.75;1753773;81;21476;-75
2021/07/27 03:51:00;;;;;;;19.50;17.80;;;;;;;20.21;85.83;100872.17;1754089;81;21040;-74
2021/07/27 03:53:27;;;;;;;19.80;17.83;;;;;;;20.27;85.42;100871.45;1736473;81;21075;-75
2021/07/27 03:55:54;;;;;;;18.63;16.73;;;;;;;20.33;84.90;100870.98;1735107;81;20989;-75
2021/07/27 03:58:21;;;;;;;18.80;16.90;;;;;;;20.43;84.61;100867.75;1734343;81;21051;-74
2021/07/27 04:00:49;;;;;;;18.93;16.93;;;;;;;20.52;84.31;100869.40;1741539;81;21142;-75
2021/07/27 04:03:15;;;;;;;19.20;17.30;;;;;;;20.61;83.92;100866.71;1740636;80;22164;-74
2021/07/27 04:05:43;;;;;;;18.63;16.77;;;;;;;20.69;83.37;100869.98;1746092;81;20981;-74
2021/07/27 04:08:10;;;;;;;18.57;16.60;;;;;;;20.75;82.96;100871.43;1738397;81;21583;-74
2021/07/27 04:10:37;;;;;;;18.70;16.80;;;;;;;20.83;82.77;100869.30;1754163;81;21475;-74
2021/07/27 04:13:04;;;;;;;19.23;17.20;;;;;;;20.91;82.51;100870.97;1745691;80;21078;-74
2021/07/27 04:15:38;;;;;;;18.20;16.60;;;;;;;20.97;82.24;100867.78;1748985;81;21071;-74
2021/07/27 04:18:05;;;;;;;17.97;16.17;;;;;;;21.04;82.30;100863.23;1743674;81;21099;-74
2021/07/27 04:20:32;;;;;;;18.63;16.67;;;;;;;21.11;82.19;100863.54;1745649;81;21037;-74
2021/07/27 04:23:00;;;;;;;17.47;15.77;;;;;;;21.19;82.20;100871.44;1740650;80;21558;-74
2021/07/27 04:25:33;;;;;;;17.73;15.97;;;;;;;21.27;81.91;100870.64;1745259;81;21662;-75
2021/07/27 04:28:00;;;;;;;17.47;15.67;;;;;;;21.37;81.54;100864.11;1744023;80;21089;-75
2021/07/27 04:30:27;;;;;;;17.50;15.90;;;;;;;21.49;81.08;100862.91;1746970;81;20952;-74
2021/07/27 04:32:54;;;;;;;17.07;15.43;;;;;;;21.61;80.49;100861.66;1736782;80;21072;-75
2021/07/27 04:35:21;;;;;;;16.40;14.40;;;;;;;21.73;79.95;100865.86;1740652;80;20993;-75
2021/07/27 04:37:51;;;;;;;16.77;14.57;;;;;;;21.88;79.36;100859.65;1747857;80;21050;-75
2021/07/27 04:40:18;;;;;;;16.80;15.10;;;;;;;22.00;79.03;100859.77;1740618;81;21094;-74
2021/07/27 04:42:46;;;;;;;15.73;14.17;;;;;;;22.11;78.67;100858.30;1742297;81;21072;-75
2021/07/27 04:45:13;;;;;;;17.07;14.63;;;;;;;22.22;78.64;100857.38;1742959;81;21094;-73
2021/07/27 04:47:40;;;;;;;16.57;14.47;;;;;;;22.31;78.28;100854.06;1751368;81;21075;-75
2021/07/27 04:50:10;;;;;;;14.60;13.10;;;;;;;22.42;77.92;100856.63;1740932;81;21036;-73
2021/07/27 04:52:37;;;;;;;15.27;13.10;;;;;;;22.54;77.56;100857.82;1732051;81;21108;-74
2021/07/27 04:55:06;;;;;;;17.07;14.10;;;;;;;22.61;76.86;100850.75;1740892;81;21005;-74
2021/07/27 04:57:33;;;;;;;14.60;13.10;;;;;;;22.69;76.91;100856.68;1746713;81;21001;-73
2021/07/27 05:00:03;;;;;;;15.37;13.77;;;;;;;22.77;76.36;100852.86;1754295;81;20989;-72
2021/07/27 05:02:29;;;;;;;16.20;13.37;;;;;;;22.81;75.40;100855.97;1739795;80;21072;-73
2021/07/27 05:04:56;;;;;;;15.00;13.23;;;;;;;22.93;74.69;100853.88;1749277;81;21133;-74
2021/07/27 05:07:23;;;;;;;14.40;13.00;;;;;;;23.08;74.34;100859.30;1743015;81;22279;-74
2021/07/27 05:09:51;;;;;;;18.23;12.00;;;;;;;23.22;73.58;100852.98;1740248;81;21009;-74
2021/07/27 05:12:17;;;;;;;14.47;11.83;;;;;;;23.34;72.47;100852.25;1735085;80;21059;-74
2021/07/27 05:14:44;;;;;;;13.60;11.47;;;;;;;23.50;71.40;100854.57;1741408;80;21067;-74
2021/07/27 05:17:12;;;;;;;13.43;12.03;;;;;;;23.61;70.31;100855.72;1744989;81;21509;-74
2021/07/27 05:19:50;;;;;;;13.80;11.63;;;;;;;23.73;69.50;100846.02;1739600;81;21012;-73
2021/07/27 05:22:17;;;;;;;15.63;11.80;;;;;;;23.86;68.67;100850.34;1746129;81;21064;-74
2021/07/27 05:24:44;;;;;;;12.77;11.40;;;;;;;23.98;68.15;100842.15;1750302;80;21045;-73
2021/07/27 05:27:10;;;;;;;12.97;11.67;;;;;;;24.06;67.60;100840.47;1739759;81;21024;-74
2021/07/27 05:29:37;;;;;;;14.33;11.13;;;;;;;24.19;67.33;100845.36;1744747;81;21145;-74
2021/07/27 05:32:05;;;;;;;14.27;11.20;;;;;;;24.33;67.19;100851.25;1752134;81;21091;-74
2021/07/27 05:34:32;;;;;;;12.93;11.50;;;;;;;24.47;66.36;100851.70;1748445;80;22334;-74
2021/07/27 05:36:59;;;;;;;12.80;10.37;;;;;;;24.62;65.94;100857.62;1738520;81;21009;-74
2021/07/27 05:39:25;;;;;;;16.67;11.63;;;;;;;24.76;65.51;100852.56;1743082;81;21008;-75
2021/07/27 05:41:52;;;;;;;12.97;10.77;;;;;;;24.88;64.37;100855.84;1742254;81;21489;-75
2021/07/27 05:44:23;;;;;;;11.80;9.70;;;;;;;25.00;64.03;100855.78;1739854;80;21020;-76
2021/07/27 05:46:49;;;;;;;11.53;9.90;;;;;;;25.12;62.92;100859.08;1742404;81;21103;-74
2021/07/27 05:49:16;;;;;;;11.73;9.90;;;;;;;25.21;62.21;100856.42;1742312;81;21049;-75
2021/07/27 05:51:44;;;;;;;19.13;14.57;;;;;;;25.32;61.73;100849.87;1747626;81;21049;-76
2021/07/27 05:54:11;;;;;;;14.97;12.50;;;;;;;25.42;61.33;100857.55;1741613;81;21437;-75
2021/07/27 05:56:38;;;;;;;14.47;12.40;;;;;;;25.53;60.50;100857.83;1738031;80;21064;-76
2021/07/27 05:59:06;;;;;;;12.40;10.60;;;;;;;25.64;59.78;100856.77;1740671;81;21012;-75
2021/07/27 06:01:32;;;;;;;11.67;10.47;;;;;;;25.73;59.09;100850.52;1745437;81;21715;-75
2021/07/27 06:03:59;;;;;;;11.87;9.63;;;;;;;25.83;58.59;100855.52;1740231;81;21109;-75
2021/07/27 06:06:31;;;;;;;12.00;9.20;;;;;;;25.92;58.24;100855.33;1740204;80;21523;-75
2021/07/27 06:09:01;;;;;;;10.03;9.00;;;;;;;26.01;58.00;100852.42;1742420;81;21098;-75
2021/07/27 06:11:27;;;;;;;11.40;9.07;;;;;;;26.10;57.64;100858.51;1739712;81;22409;-75
2021/07/27 06:13:54;;;;;;;11.10;9.07;;;;;;;26.18;58.00;100856.94;1743935;81;21056;-76
2021/07/27 06:16:20;;;;;;;10.40;8.87;;;;;;;26.29;57.86;100857.75;1737756;80;21079;-75
2021/07/27 06:18:47;;;;;;;9.60;8.47;;;;;;;26.36;57.58;100857.36;1738593;81;22010;-76
2021/07/27 06:21:14;;;;;;;10.17;8.67;;;;;;;26.48;56.81;100862.52;1747734;81;21032;-74
2021/07/27 06:23:42;;;;;;;9.97;8.63;;;;;;;26.56;56.79;100859.59;1737102;81;21099;-74
2021/07/27 06:26:09;;;;;;;10.90;8.43;;;;;;;26.62;56.52;100859.53;1741806;80;22385;-74
2021/07/27 06:28:36;;;;;;;10.97;8.57;;;;;;;26.70;56.06;100857.73;1740365;81;21530;-74
2021/07/27 06:31:10;;;;;;;9.73;8.40;;;;;;;26.78;56.15;100854.55;1749829;81;21525;-74
2021/07/27 06:33:33;;;;;;;10.43;9.33;;;;;;;26.85;55.81;100855.52;1744889;81;21177;-74
2021/07/27 06:36:00;;;;;;;12.83;9.17;;;;;;;26.91;55.48;100851.88;1742649;81;21649;-76
2021/07/27 06:38:27;;;;;;;9.60;8.27;;;;;;;27.00;55.67;100851.09;1742768;81;21067;-74
2021/07/27 06:40:53;;;;;;;11.70;8.73;;;;;;;27.10;54.99;100853.84;1738927;81;21613;-75
2021/07/27 06:43:20;;;;;;;8.33;7.50;;;;;;;27.16;54.82;100856.53;1745963;81;21092;-76
2021/07/27 06:45:53;;;;;;;9.47;8.07;;;;;;;27.21;53.82;100854.85;1746075;81;21056;-76
2021/07/27 06:48:21;;;;;;;10.17;8.03;;;;;;;27.27;53.74;100847.92;1741762;81;21004;-76
2021/07/27 06:50:48;;;;;;;9.53;7.90;;;;;;;27.33;53.88;100849.21;1743313;81;21040;-75
2021/07/27 06:53:15;;;;;;;10.60;8.20;;;;;;;27.42;53.93;100855.84;1743801;81;21554;-75
2021/07/27 06:55:42;;;;;;;9.47;7.53;;;;;;;27.51;53.61;100854.22;1745039;81;21638;-75
2021/07/27 06:58:08;;;;;;;10.87;8.07;;;;;;;27.61;53.20;100855.02;1741426;81;20997;-75
2021/07/27 07:00:41;;;;;;;9.67;7.83;;;;;;;27.72;52.94;100845.58;1743632;81;21618;-76
2021/07/27 07:03:08;;;;;;;11.97;8.20;;;;;;;27.82;52.55;100849.90;1741191;80;21063;-76
2021/07/27 07:05:35;;;;;;;9.13;8.00;;;;;;;27.90;51.76;100856.28;1739222;81;21060;-76
2021/07/27 07:08:03;;;;;;;14.23;8.23;;;;;;;27.99;50.86;100854.67;1743903;80;21484;-76
2021/07/27 07:10:30;;;;;;;12.00;7.87;;;;;;;28.05;51.67;100850.45;1746260;80;20960;-76
2021/07/27 07:13:00;;;;;;;9.73;7.30;;;;;;;28.12;51.82;100852.52;1736363;81;21005;-75
2021/07/27 07:15:28;;;;;;;11.83;8.20;;;;;;;28.21;50.84;100855.80;1739501;81;20992;-77
2021/07/27 07:17:55;;;;;;;10.73;7.83;;;;;;;28.29;51.25;100856.11;1740943;80;20981;-76
2021/07/27 07:20:22;;;;;;;11.13;7.43;;;;;;;28.41;52.01;100854.55;1737935;81;21511;-78
2021/07/27 07:22:49;;;;;;;12.83;8.07;;;;;;;28.46;51.99;100854.80;1745423;81;21056;-76
2021/07/27 07:25:15;;;;;;;10.30;7.77;;;;;;;28.54;51.77;100848.25;1761736;81;21575;-76
2021/07/27 07:27:42;;;;;;;9.70;7.40;;;;;;;28.62;51.11;100848.55;1737237;80;21001;-78
2021/07/27 07:30:09;;;;;;;11.57;7.50;;;;;;;28.73;51.06;100845.95;1738689;81;21017;-77
2021/07/27 07:32:36;;;;;;;11.23;7.83;;;;;;;28.82;51.18;100844.27;1740769;81;21186;-77
2021/07/27 07:35:04;;;;;;;8.73;7.27;;;;;;;28.88;50.22;100841.41;1724849;81;20993;-76
2021/07/27 07:37:32;;;;;;;11.90;7.63;;;;;;;28.95;49.88;100846.39;1737158;80;21043;-77
2021/07/27 07:39:58;;;;;;;9.87;7.50;;;;;;;29.09;50.33;100847.19;1741529;81;21558;-76
2021/07/27 07:42:25;;;;;;;10.93;8.00;;;;;;;29.21;49.98;100845.53;1742835;81;21578;-77
2021/07/27 07:44:52;;;;;;;11.07;7.60;;;;;;;29.31;49.10;100844.66;1747163;81;21140;-78
2021/07/27 07:47:19;;;;;;;14.25;8.13;;;;;;;29.37;47.71;100843.14;1744868;80;21189;-76
2021/07/27 07:49:45;;;;;;;10.00;7.40;;;;;;;29.44;47.57;100844.58;1740150;81;21035;-78
2021/07/27 07:52:12;;;;;;;11.70;7.50;;;;;;;29.52;47.29;100846.25;1734315;81;21702;-76
2021/07/27 07:54:40;;;;;;;11.23;7.23;;;;;;;29.56;47.13;100841.56;1742896;81;21594;-77
2021/07/27 07:57:07;;;;;;;11.50;7.87;;;;;;;29.62;47.29;100838.70;1743908;80;21127;-76
2021/07/27 07:59:34;;;;;;;11.03;7.10;;;;;;;29.65;46.91;100830.27;1739297;81;21040;-75
2021/07/27 08:02:01;;;;;;;8.25;7.45;;;;;;;29.67;46.51;100834.20;1735537;81;21040;-77
2021/07/27 08:04:27;;;;;;;9.97;6.77;;;;;;;29.71;46.98;100837.58;1737668;81;21539;-77
2021/07/27 08:06:54;;;;;;;9.18;6.80;;;;;;;29.78;46.42;100836.25;1741028;81;21580;-75
2021/07/27 08:09:21;;;;;;;7.70;6.70;;;;;;;29.86;46.39;100834.56;1734832;80;21968;-76
2021/07/27 08:11:48;;;;;;;9.97;6.70;;;;;;;29.96;44.98;100827.55;1744221;81;21086;-77
2021/07/27 08:14:15;;;;;;;11.03;6.83;;;;;;;30.06;44.32;100838.44;1744346;81;21024;-75
2021/07/27 08:16:43;;;;;;;9.93;7.10;;;;;;;30.15;43.97;100832.80;1743011;81;21024;-75
2021/07/27 08:19:09;;;;;;;9.53;6.42;;;;;;;30.27;43.59;100833.67;1741181;80;21047;-76
2021/07/27 08:21:36;;;;;;;8.43;6.58;;;;;;;30.37;43.85;100829.63;1739750;81;22311;-77
2021/07/27 08:24:03;;;;;;;9.95;6.85;;;;;;;30.45;43.49;100829.06;1744146;81;21024;-76
2021/07/27 08:26:30;;;;;;;8.50;6.62;;;;;;;30.52;41.86;100837.36;1746365;81;21194;-76
2021/07/27 08:28:57;;;;;;;9.83;6.53;;;;;;;30.55;41.43;100837.97;1740129;81;21077;-78
2021/07/27 08:31:25;;;;;;;9.83;6.78;;;;;;;30.60;40.95;100831.28;1742552;81;21626;-77
2021/07/27 08:33:52;;;;;;;11.33;6.92;;;;;;;30.65;41.18;100829.55;1742502;81;21601;-78
2021/07/27 08:36:18;;;;;;;12.68;6.95;;;;;;;30.68;40.93;100823.84;1746316;81;21032;-79
2021/07/27 08:38:46;;;;;;;9.80;6.75;;;;;;;30.74;40.89;100823.68;1736624;80;21071;-78
2021/07/27 08:41:13;;;;;;;8.88;6.80;;;;;;;30.82;41.51;100828.06;1741250;81;21063;-77
2021/07/27 08:43:41;;;;;;;13.10;6.72;;;;;;;30.90;41.05;100823.34;1743179;81;21605;-76
2021/07/27 08:46:08;;;;;;;14.28;7.10;;;;;;;30.92;40.19;100819.03;1753360;81;21108;-77
2021/07/27 08:48:37;;;;;;;14.07;7.70;;;;;;;30.99;40.28;100816.28;1738779;80;21040;-78
2021/07/27 08:51:04;;;;;;;12.13;6.55;;;;;;;31.07;38.56;100817.89;1741144;81;21024;-77
2021/07/27 08:53:31;;;;;;;10.72;6.28;;;;;;;31.13;38.41;100813.36;1749066;81;21048;-78
2021/07/27 08:55:59;;;;;;;10.13;6.70;;;;;;;31.16;37.89;100814.77;1749458;81;21071;-77
2021/07/27 08:58:27;;;;;;;10.68;6.65;;;;;;;31.22;38.20;100816.53;1756495;80;21228;-78
2021/07/27 09:00:54;;;;;;;10.30;6.67;;;;;;;31.26;37.79;100813.17;1742131;81;21072;-76
2021/07/27 09:03:21;;;;;;;9.78;6.65;;;;;;;31.32;37.71;100812.99;1746272;81;21665;-75
2021/07/27 09:05:49;;;;;;;9.85;6.50;;;;;;;31.37;38.33;100812.65;1749449;81;21079;-77
2021/07/27 09:08:16;;;;;;;11.88;7.05;;;;;;;31.42;37.98;100804.55;1749321;81;21095;-75
2021/07/27 09:10:44;;;;;;;9.08;6.33;;;;;;;31.48;37.50;100807.91;1742931;80;21105;-77
2021/07/27 09:13:18;;;;;;;8.85;6.08;;;;;;;31.53;37.21;100806.75;1749231;81;21060;-79
2021/07/27 09:15:45;;;;;;;10.28;6.12;;;;;;;31.57;36.99;100799.84;1748054;81;20997;-76
2021/07/27 09:18:21;;;;;;;9.45;6.22;;;;;;;31.59;37.25;100805.73;1734975;81;21114;-76
2021/07/27 09:20:53;;;;;;;8.40;6.50;;;;;;;31.64;37.44;100805.36;1740566;80;20988;-77
2021/07/27 09:23:22;;;;;;;10.00;6.92;;;;;;;31.69;37.39;100804.38;1749928;81;21893;-76
2021/07/27 09:25:52;;;;;;;12.75;7.00;;;;;;;31.74;36.74;100803.18;1744908;81;21072;-75
2021/07/27 09:28:21;;;;;;;10.95;6.45;;;;;;;31.76;36.77;100804.37;1737055;81;21095;-76
2021/07/27 09:30:49;;;;;;;12.47;7.05;;;;;;;31.79;36.66;100800.03;1744756;80;21040;-76
2021/07/27 09:33:17;;;;;;;7.92;5.95;;;;;;;31.83;37.06;100797.27;1735443;81;21055;-77
2021/07/27 09:35:45;;;;;;;8.88;6.55;;;;;;;31.88;36.99;100789.97;1755525;81;21024;-75
2021/07/27 09:38:17;;;;;;;8.93;6.03;;;;;;;31.92;36.92;100787.98;1760352;81;21036;-77
2021/07/27 09:40:56;;;;;;;11.57;7.10;;;;;;;31.98;36.94;100790.54;1740736;80;21024;-77
2021/07/27 09:43:25;;;;;;;11.78;6.47;;;;;;;32.03;37.43;100786.00;1735807;81;20993;-77
2021/07/27 09:45:55;;;;;;;9.00;5.95;;;;;;;32.11;36.88;100790.91;1736065;81;21122;-76
2021/07/27 09:48:23;;;;;;;6.47;5.80;;;;;;;32.17;36.96;100783.78;1736920;81;21816;-78
2021/07/27 09:50:53;;;;;;;9.45;6.28;;;;;;;32.20;36.41;100777.47;1723088;81;21596;-77
2021/07/27 09:53:21;;;;;;;9.80;6.78;;;;;;;32.22;36.64;100786.16;1746441;81;21052;-76
2021/07/27 09:55:48;;;;;;;8.38;6.12;;;;;;;32.22;36.22;100780.03;1731967;81;21127;-77
2021/07/27 09:58:14;;;;;;;8.43;6.30;;;;;;;32.21;36.59;100778.44;1753261;81;21567;-77
2021/07/27 10:01:13;;;;;;;8.53;5.97;;;;;;;32.24;36.01;100778.23;1749992;80;21128;-77
2021/07/27 10:04:00;;;;;;;8.50;5.72;;;;;;;32.26;35.17;100779.23;1744307;81;21048;-77
2021/07/27 10:06:35;;;;;;;9.65;5.90;;;;;;;32.22;35.52;100779.25;1731266;81;21094;-77
2021/07/27 10:09:03;;;;;;;6.58;5.67;;;;;;;32.25;35.44;100771.54;1735976;81;22142;-79
2021/07/27 10:11:44;;;;;;;9.00;6.42;;;;;;;32.29;35.66;100777.84;1737052;80;21534;-78
2021/07/27 10:14:13;;;;;;;7.53;6.28;;;;;;;32.32;35.69;100775.66;1744345;81;21965;-75
2021/07/27 10:16:40;;;;;;;9.28;6.72;;;;;;;32.38;35.81;100774.05;1744241;81;21094;-75
2021/07/27 10:19:20;;;;;;;9.35;6.42;;;;;;;32.44;36.26;100771.07;1760501;81;21056;-76
2021/07/27 10:22:04;;;;;;;10.10;6.47;;;;;;;32.52;36.29;100763.55;1745118;80;21613;-77
2021/07/27 10:24:43;;;;;;;8.40;6.05;;;;;;;32.56;36.18;100758.00;1748232;81;20981;-76
2021/07/27 10:27:25;;;;;;;9.18;6.05;;;;;;;32.65;35.81;100759.73;1751701;81;21118;-76
2021/07/27 10:29:43;;;;;;;9.45;6.22;;;;;;;32.70;35.47;100762.06;1730294;82;21119;-75
2021/07/27 10:32:17;;;;;;;8.43;6.35;;;;;;;32.72;34.37;100759.70;1743437;81;21017;-77
2021/07/27 10:34:44;;;;;;;8.40;6.53;;;;;;;32.70;34.88;100756.53;1737564;81;21040;-75
2021/07/27 10:37:17;;;;;;;9.35;6.15;;;;;;;32.70;34.76;100754.55;1746380;81;20972;-76
2021/07/27 10:39:55;;;;;;;9.13;6.10;;;;;;;32.72;33.83;100750.02;1739424;81;21485;-76
2021/07/27 10:42:22;;;;;;;8.73;6.30;;;;;;;32.72;34.26;100758.31;1744453;80;20997;-76
2021/07/27 10:44:52;;;;;;;8.55;6.05;;;;;;;32.72;34.08;100752.78;1735903;81;20961;-77
2021/07/27 10:47:24;;;;;;;9.13;6.30;;;;;;;32.69;34.29;100753.59;1734915;81;21012;-77
2021/07/27 10:50:04;;;;;;;9.05;5.72;;;;;;;32.65;33.31;100747.30;1734394;81;20982;-78
2021/07/27 10:52:31;;;;;;;8.68;6.37;;;;;;;32.64;33.88;100740.98;1744674;80;21079;-75
2021/07/27 10:54:59;;;;;;;7.97;6.12;;;;;;;32.64;34.18;100745.13;1753792;81;21028;-77
2021/07/27 10:57:42;;;;;;;7.92;5.87;;;;;;;32.68;34.12;100733.44;1747612;81;21013;-76
2021/07/27 11:00:10;;;;;;;8.03;6.35;;;;;;;32.73;33.47;100734.20;1742584;81;21119;-76
2021/07/27 11:02:38;;;;;;;8.58;6.25;;;;;;;32.74;33.59;100738.53;1745806;80;21056;-75
2021/07/27 11:05:07;;;;;;;8.38;6.33;;;;;;;32.76;33.56;100742.48;1741565;81;21088;-77
2021/07/27 11:07:34;;;;;;;8.28;6.20;;;;;;;32.80;33.75;100739.08;1741165;81;20972;-77
2021/07/27 11:10:04;;;;;;;9.85;6.47;;;;;;;32.89;34.12;100731.13;1753787;81;20985;-78
2021/07/27 11:12:38;;;;;;;8.08;5.90;;;;;;;33.03;33.96;100733.62;1742285;80;21040;-75
2021/07/27 11:15:17;;;;;;;10.03;6.20;;;;;;;33.07;34.12;100728.28;1740957;81;21099;-76
2021/07/27 11:17:47;;;;;;;7.92;6.15;;;;;;;33.08;33.60;100727.08;1738596;81;21424;-76
2021/07/27 11:20:22;;;;;;;8.35;6.33;;;;;;;33.11;33.60;100724.87;1736625;81;21068;-77
2021/07/27 11:22:54;;;;;;;7.75;6.17;;;;;;;33.13;33.46;100731.38;1741993;80;21093;-77
2021/07/27 11:25:23;;;;;;;8.70;6.30;;;;;;;33.15;33.56;100721.48;1741802;81;21000;-76
2021/07/27 11:27:51;;;;;;;8.75;6.22;;;;;;;33.20;33.42;100723.61;1748752;81;21144;-76
2021/07/27 11:30:20;;;;;;;7.50;6.10;;;;;;;33.21;33.55;100720.45;1737923;80;21098;-76
2021/07/27 11:32:49;;;;;;;9.70;6.60;;;;;;;33.21;33.67;100720.45;1742775;80;21127;-76
2021/07/27 11:35:25;;;;;;;9.70;6.40;;;;;;;33.23;33.21;100717.26;1740464;81;21063;-77
2021/07/27 11:38:04;;;;;;;7.70;6.28;;;;;;;33.25;33.30;100715.66;1743736;80;21067;-77
2021/07/27 11:40:31;;;;;;;9.33;6.00;;;;;;;33.29;33.41;100709.48;1743583;81;21052;-76
2021/07/27 11:43:07;;;;;;;9.13;6.10;;;;;;;33.35;33.07;100715.38;1743612;80;21141;-77
2021/07/27 11:45:35;;;;;;;8.55;5.85;;;;;;;33.46;32.71;100709.73;1736371;81;21294;-78